sensor_id;sensor_type;location;lat;lon;timestamp;P1;durP1;ratioP1;P2;durP2;ratioP2
809;SDS011;387;48.772;9.186;2024-01-15T00:01:20;25.73;;;10.20;;
809;SDS011;387;48.772;9.186;2024-01-15T00:03:47;26.70;;;9.45;;
809;SDS011;387;48.772;9.186;2024-01-15T00:06:13;12.40;;;3.97;;
809;SDS011;387;48.772;9.186;2024-01-15T00:08:38;30.93;;;10.20;;
809;SDS011;387;48.772;9.186;2024-01-15T00:11:04;25.37;;;9.20;;
809;SDS011;387;48.772;9.186;2024-01-15T00:13:29;25.80;;;9.50;;
809;SDS011;387;48.772;9.186;2024-01-15T00:15:55;24.20;;;10.40;;
809;SDS011;387;48.772;9.186;2024-01-15T00:18:21;19.30;;;8.70;;
809;SDS011;387;48.772;9.186;2024-01-15T00:20:46;25.23;;;8.90;;
809;SDS011;387;48.772;9.186;2024-01-15T00:23:12;23.40;;;9.23;;
809;SDS011;387;48.772;9.186;2024-01-15T00:25:37;26.60;;;9.50;;
809;SDS011;387;48.772;9.186;2024-01-15T00:28:03;28.10;;;9.03;;
809;SDS011;387;48.772;9.186;2024-01-15T00:30:29;26.20;;;10.80;;
809;SDS011;387;48.772;9.186;2024-01-15T00:32:54;22.77;;;9.47;;
809;SDS011;387;48.772;9.186;2024-01-15T00:35:20;26.10;;;9.20;;
809;SDS011;387;48.772;9.186;2024-01-15T00:37:45;27.53;;;9.60;;
809;SDS011;387;48.772;9.186;2024-01-15T00:40:11;30.57;;;10.50;;
809;SDS011;387;48.772;9.186;2024-01-15T00:42:37;23.13;;;10.50;;
809;SDS011;387;48.772;9.186;2024-01-15T00:45:02;29.03;;;10.30;;
809;SDS011;387;48.772;9.186;2024-01-15T00:47:30;21.10;;;9.43;;
809;SDS011;387;48.772;9.186;2024-01-15T00:49:55;25.23;;;7.30;;
809;SDS011;387;48.772;9.186;2024-01-15T00:52:21;20.07;;;9.10;;
809;SDS011;387;48.772;9.186;2024-01-15T00:54:46;29.27;;;10.27;;
809;SDS011;387;48.772;9.186;2024-01-15T00:57:12;24.87;;;8.30;;
809;SDS011;387;48.772;9.186;2024-01-15T00:59:38;17.63;;;6.37;;
809;SDS011;387;48.772;9.186;2024-01-15T01:02:04;27.30;;;9.48;;
809;SDS011;387;48.772;9.186;2024-01-15T01:04:29;28.27;;;9.13;;
809;SDS011;387;48.772;9.186;2024-01-15T01:06:55;27.97;;;10.80;;
809;SDS011;387;48.772;9.186;2024-01-15T01:09:20;23.47;;;8.77;;
809;SDS011;387;48.772;9.186;2024-01-15T01:11:46;18.47;;;7.80;;
809;SDS011;387;48.772;9.186;2024-01-15T01:14:12;22.10;;;6.53;;
809;SDS011;387;48.772;9.186;2024-01-15T01:16:37;22.97;;;8.80;;
809;SDS011;387;48.772;9.186;2024-01-15T01:19:04;23.08;;;8.32;;
809;SDS011;387;48.772;9.186;2024-01-15T01:21:31;22.08;;;8.07;;
809;SDS011;387;48.772;9.186;2024-01-15T01:23:57;14.60;;;5.50;;
809;SDS011;387;48.772;9.186;2024-01-15T01:26:23;17.73;;;6.93;;
809;SDS011;387;48.772;9.186;2024-01-15T01:28:50;14.37;;;6.67;;
809;SDS011;387;48.772;9.186;2024-01-15T01:31:15;20.90;;;8.38;;
809;SDS011;387;48.772;9.186;2024-01-15T01:33:41;12.00;;;4.88;;
809;SDS011;387;48.772;9.186;2024-01-15T01:36:08;26.30;;;9.13;;
809;SDS011;387;48.772;9.186;2024-01-15T01:38:34;22.40;;;8.30;;
809;SDS011;387;48.772;9.186;2024-01-15T01:41:00;20.05;;;7.30;;
809;SDS011;387;48.772;9.186;2024-01-15T01:43:26;26.57;;;8.43;;
809;SDS011;387;48.772;9.186;2024-01-15T01:45:51;18.40;;;7.17;;
809;SDS011;387;48.772;9.186;2024-01-15T01:48:17;19.67;;;7.07;;
809;SDS011;387;48.772;9.186;2024-01-15T01:50:44;22.33;;;8.17;;
809;SDS011;387;48.772;9.186;2024-01-15T01:53:09;31.25;;;9.35;;
809;SDS011;387;48.772;9.186;2024-01-15T01:55:35;24.80;;;8.40;;
809;SDS011;387;48.772;9.186;2024-01-15T01:58:03;27.33;;;9.23;;
809;SDS011;387;48.772;9.186;2024-01-15T02:00:30;25.90;;;9.93;;
809;SDS011;387;48.772;9.186;2024-01-15T02:02:57;19.73;;;7.10;;
809;SDS011;387;48.772;9.186;2024-01-15T02:05:22;24.53;;;9.00;;
809;SDS011;387;48.772;9.186;2024-01-15T02:07:48;15.63;;;4.80;;
809;SDS011;387;48.772;9.186;2024-01-15T02:10:14;21.73;;;5.30;;
809;SDS011;387;48.772;9.186;2024-01-15T02:12:39;20.40;;;8.03;;
809;SDS011;387;48.772;9.186;2024-01-15T02:15:05;22.20;;;8.30;;
809;SDS011;387;48.772;9.186;2024-01-15T02:17:31;22.57;;;7.87;;
809;SDS011;387;48.772;9.186;2024-01-15T02:19:57;25.93;;;8.97;;
809;SDS011;387;48.772;9.186;2024-01-15T02:22:22;27.77;;;8.57;;
809;SDS011;387;48.772;9.186;2024-01-15T02:24:48;21.70;;;8.67;;
809;SDS011;387;48.772;9.186;2024-01-15T02:27:13;18.93;;;9.07;;
809;SDS011;387;48.772;9.186;2024-01-15T02:29:39;28.20;;;9.37;;
809;SDS011;387;48.772;9.186;2024-01-15T02:32:05;25.33;;;8.07;;
809;SDS011;387;48.772;9.186;2024-01-15T02:34:33;26.08;;;9.65;;
809;SDS011;387;48.772;9.186;2024-01-15T02:36:59;16.47;;;5.80;;
809;SDS011;387;48.772;9.186;2024-01-15T02:39:24;23.90;;;9.80;;
809;SDS011;387;48.772;9.186;2024-01-15T02:41:50;22.00;;;8.00;;
809;SDS011;387;48.772;9.186;2024-01-15T02:44:16;30.73;;;9.37;;
809;SDS011;387;48.772;9.186;2024-01-15T02:46:41;14.27;;;6.50;;
809;SDS011;387;48.772;9.186;2024-01-15T02:49:07;18.37;;;8.20;;
809;SDS011;387;48.772;9.186;2024-01-15T02:51:32;17.10;;;7.40;;
809;SDS011;387;48.772;9.186;2024-01-15T02:53:58;21.80;;;7.67;;
809;SDS011;387;48.772;9.186;2024-01-15T02:56:24;23.60;;;8.07;;
809;SDS011;387;48.772;9.186;2024-01-15T02:58:49;19.73;;;7.93;;
809;SDS011;387;48.772;9.186;2024-01-15T03:01:18;22.60;;;7.93;;
809;SDS011;387;48.772;9.186;2024-01-15T03:03:44;19.35;;;8.43;;
809;SDS011;387;48.772;9.186;2024-01-15T03:06:10;23.00;;;8.00;;
809;SDS011;387;48.772;9.186;2024-01-15T03:08:35;19.07;;;8.87;;
809;SDS011;387;48.772;9.186;2024-01-15T03:11:01;18.07;;;8.00;;
809;SDS011;387;48.772;9.186;2024-01-15T03:13:27;24.73;;;9.37;;
809;SDS011;387;48.772;9.186;2024-01-15T03:15:52;25.70;;;8.83;;
809;SDS011;387;48.772;9.186;2024-01-15T03:18:18;20.87;;;9.23;;
809;SDS011;387;48.772;9.186;2024-01-15T03:20:43;21.63;;;8.17;;
809;SDS011;387;48.772;9.186;2024-01-15T03:23:10;22.50;;;9.17;;
809;SDS011;387;48.772;9.186;2024-01-15T03:25:35;26.77;;;9.73;;
809;SDS011;387;48.772;9.186;2024-01-15T03:28:01;25.73;;;9.17;;
809;SDS011;387;48.772;9.186;2024-01-15T03:30:27;25.13;;;9.30;;
809;SDS011;387;48.772;9.186;2024-01-15T03:32:52;27.60;;;8.93;;
809;SDS011;387;48.772;9.186;2024-01-15T03:35:18;16.47;;;8.10;;
809;SDS011;387;48.772;9.186;2024-01-15T03:37:44;20.90;;;8.33;;
809;SDS011;387;48.772;9.186;2024-01-15T03:40:09;23.13;;;9.47;;
809;SDS011;387;48.772;9.186;2024-01-15T03:42:35;22.65;;;8.52;;
809;SDS011;387;48.772;9.186;2024-01-15T03:45:01;24.93;;;10.00;;
809;SDS011;387;48.772;9.186;2024-01-15T03:47:27;24.33;;;9.05;;
809;SDS011;387;48.772;9.186;2024-01-15T03:49:53;24.03;;;8.47;;
809;SDS011;387;48.772;9.186;2024-01-15T03:52:19;20.30;;;7.77;;
809;SDS011;387;48.772;9.186;2024-01-15T03:54:44;20.20;;;8.77;;
809;SDS011;387;48.772;9.186;2024-01-15T03:57:10;21.00;;;8.73;;
809;SDS011;387;48.772;9.186;2024-01-15T03:59:35;29.57;;;9.30;;
809;SDS011;387;48.772;9.186;2024-01-15T04:02:01;22.80;;;8.27;;
809;SDS011;387;48.772;9.186;2024-01-15T04:04:26;32.00;;;8.10;;
809;SDS011;387;48.772;9.186;2024-01-15T04:06:52;17.27;;;7.77;;
809;SDS011;387;48.772;9.186;2024-01-15T04:09:18;23.63;;;8.83;;
809;SDS011;387;48.772;9.186;2024-01-15T04:11:43;23.67;;;8.53;;
809;SDS011;387;48.772;9.186;2024-01-15T04:14:09;34.83;;;8.33;;
809;SDS011;387;48.772;9.186;2024-01-15T04:16:34;23.40;;;7.80;;
809;SDS011;387;48.772;9.186;2024-01-15T04:19:00;21.63;;;8.60;;
809;SDS011;387;48.772;9.186;2024-01-15T04:21:25;26.17;;;7.90;;
809;SDS011;387;48.772;9.186;2024-01-15T04:23:52;20.20;;;8.17;;
809;SDS011;387;48.772;9.186;2024-01-15T04:26:18;19.25;;;8.35;;
809;SDS011;387;48.772;9.186;2024-01-15T04:28:43;18.50;;;6.00;;
809;SDS011;387;48.772;9.186;2024-01-15T04:31:09;20.63;;;7.90;;
809;SDS011;387;48.772;9.186;2024-01-15T04:33:34;19.97;;;7.10;;
809;SDS011;387;48.772;9.186;2024-01-15T04:36:03;16.33;;;6.70;;
809;SDS011;387;48.772;9.186;2024-01-15T04:38:30;21.02;;;7.68;;
809;SDS011;387;48.772;9.186;2024-01-15T04:40:57;22.58;;;7.35;;
809;SDS011;387;48.772;9.186;2024-01-15T04:43:23;14.10;;;4.23;;
809;SDS011;387;48.772;9.186;2024-01-15T04:45:48;18.67;;;6.07;;
809;SDS011;387;48.772;9.186;2024-01-15T04:48:14;22.53;;;5.20;;
809;SDS011;387;48.772;9.186;2024-01-15T04:50:39;17.83;;;5.00;;
809;SDS011;387;48.772;9.186;2024-01-15T04:53:05;16.37;;;7.30;;
809;SDS011;387;48.772;9.186;2024-01-15T04:55:30;13.00;;;6.40;;
809;SDS011;387;48.772;9.186;2024-01-15T04:57:56;18.37;;;6.10;;
809;SDS011;387;48.772;9.186;2024-01-15T05:00:21;15.30;;;5.00;;
809;SDS011;387;48.772;9.186;2024-01-15T05:02:47;13.73;;;6.17;;
809;SDS011;387;48.772;9.186;2024-01-15T05:05:13;17.67;;;5.50;;
809;SDS011;387;48.772;9.186;2024-01-15T05:07:38;15.03;;;7.73;;
809;SDS011;387;48.772;9.186;2024-01-15T05:10:04;10.27;;;4.80;;
809;SDS011;387;48.772;9.186;2024-01-15T05:12:30;18.70;;;6.47;;
809;SDS011;387;48.772;9.186;2024-01-15T05:14:56;18.87;;;8.40;;
809;SDS011;387;48.772;9.186;2024-01-15T05:17:21;18.93;;;6.70;;
809;SDS011;387;48.772;9.186;2024-01-15T05:19:47;24.33;;;8.50;;
809;SDS011;387;48.772;9.186;2024-01-15T05:22:12;22.37;;;7.40;;
809;SDS011;387;48.772;9.186;2024-01-15T05:24:38;21.37;;;6.60;;
809;SDS011;387;48.772;9.186;2024-01-15T05:27:03;20.27;;;7.60;;
809;SDS011;387;48.772;9.186;2024-01-15T05:29:29;12.27;;;5.70;;
809;SDS011;387;48.772;9.186;2024-01-15T05:31:55;12.37;;;6.70;;
809;SDS011;387;48.772;9.186;2024-01-15T05:34:20;17.70;;;8.23;;
809;SDS011;387;48.772;9.186;2024-01-15T05:36:46;16.03;;;6.90;;
809;SDS011;387;48.772;9.186;2024-01-15T05:39:12;9.85;;;5.43;;
809;SDS011;387;48.772;9.186;2024-01-15T05:41:38;15.10;;;5.93;;
809;SDS011;387;48.772;9.186;2024-01-15T05:44:04;17.43;;;7.00;;
809;SDS011;387;48.772;9.186;2024-01-15T05:46:30;15.00;;;6.10;;
809;SDS011;387;48.772;9.186;2024-01-15T05:48:55;17.07;;;6.10;;
809;SDS011;387;48.772;9.186;2024-01-15T05:51:21;16.40;;;6.03;;
809;SDS011;387;48.772;9.186;2024-01-15T05:53:46;20.93;;;7.53;;
809;SDS011;387;48.772;9.186;2024-01-15T05:56:12;23.47;;;8.47;;
809;SDS011;387;48.772;9.186;2024-01-15T05:58:37;18.90;;;7.93;;
809;SDS011;387;48.772;9.186;2024-01-15T06:01:03;16.70;;;7.47;;
809;SDS011;387;48.772;9.186;2024-01-15T06:03:29;18.70;;;7.70;;
809;SDS011;387;48.772;9.186;2024-01-15T06:05:54;18.90;;;7.07;;
809;SDS011;387;48.772;9.186;2024-01-15T06:08:20;16.77;;;7.90;;
809;SDS011;387;48.772;9.186;2024-01-15T06:10:46;21.63;;;7.60;;
809;SDS011;387;48.772;9.186;2024-01-15T06:13:11;19.50;;;7.33;;
809;SDS011;387;48.772;9.186;2024-01-15T06:15:38;15.60;;;5.18;;
809;SDS011;387;48.772;9.186;2024-01-15T06:18:04;18.37;;;5.63;;
809;SDS011;387;48.772;9.186;2024-01-15T06:20:30;15.50;;;6.90;;
809;SDS011;387;48.772;9.186;2024-01-15T06:22:56;18.98;;;7.78;;
809;SDS011;387;48.772;9.186;2024-01-15T06:25:22;21.43;;;7.07;;
809;SDS011;387;48.772;9.186;2024-01-15T06:27:47;18.53;;;6.97;;
809;SDS011;387;48.772;9.186;2024-01-15T06:30:13;14.23;;;5.20;;
809;SDS011;387;48.772;9.186;2024-01-15T06:32:39;13.70;;;5.88;;
809;SDS011;387;48.772;9.186;2024-01-15T06:35:05;18.83;;;7.70;;
809;SDS011;387;48.772;9.186;2024-01-15T06:37:31;15.77;;;8.10;;
809;SDS011;387;48.772;9.186;2024-01-15T06:39:57;11.35;;;5.10;;
809;SDS011;387;48.772;9.186;2024-01-15T06:42:23;14.27;;;6.50;;
809;SDS011;387;48.772;9.186;2024-01-15T06:44:49;14.32;;;6.32;;
809;SDS011;387;48.772;9.186;2024-01-15T06:47:15;15.13;;;6.50;;
809;SDS011;387;48.772;9.186;2024-01-15T06:49:42;18.65;;;6.18;;
809;SDS011;387;48.772;9.186;2024-01-15T06:52:08;11.77;;;5.70;;
809;SDS011;387;48.772;9.186;2024-01-15T06:54:33;18.07;;;7.83;;
809;SDS011;387;48.772;9.186;2024-01-15T06:56:59;13.30;;;5.50;;
809;SDS011;387;48.772;9.186;2024-01-15T06:59:24;13.00;;;5.63;;
809;SDS011;387;48.772;9.186;2024-01-15T07:01:50;14.97;;;5.10;;
809;SDS011;387;48.772;9.186;2024-01-15T07:04:15;19.00;;;7.40;;
809;SDS011;387;48.772;9.186;2024-01-15T07:06:41;20.60;;;6.53;;
809;SDS011;387;48.772;9.186;2024-01-15T07:09:07;9.57;;;4.67;;
809;SDS011;387;48.772;9.186;2024-01-15T07:11:33;12.23;;;6.68;;
809;SDS011;387;48.772;9.186;2024-01-15T07:13:59;14.60;;;5.53;;
809;SDS011;387;48.772;9.186;2024-01-15T07:16:25;10.00;;;4.80;;
809;SDS011;387;48.772;9.186;2024-01-15T07:18:50;13.83;;;6.20;;
809;SDS011;387;48.772;9.186;2024-01-15T07:21:16;14.20;;;5.80;;
809;SDS011;387;48.772;9.186;2024-01-15T07:23:41;14.30;;;5.63;;
809;SDS011;387;48.772;9.186;2024-01-15T07:26:07;10.57;;;4.40;;
809;SDS011;387;48.772;9.186;2024-01-15T07:28:33;6.13;;;3.53;;
809;SDS011;387;48.772;9.186;2024-01-15T07:30:58;17.07;;;4.70;;
809;SDS011;387;48.772;9.186;2024-01-15T07:33:26;19.70;;;7.03;;
809;SDS011;387;48.772;9.186;2024-01-15T07:35:52;24.37;;;8.50;;
809;SDS011;387;48.772;9.186;2024-01-15T07:38:17;13.43;;;5.47;;
809;SDS011;387;48.772;9.186;2024-01-15T07:40:43;19.37;;;6.50;;
809;SDS011;387;48.772;9.186;2024-01-15T07:43:09;17.40;;;7.57;;
809;SDS011;387;48.772;9.186;2024-01-15T07:45:35;18.23;;;6.90;;
809;SDS011;387;48.772;9.186;2024-01-15T07:48:00;18.80;;;7.53;;
809;SDS011;387;48.772;9.186;2024-01-15T07:50:26;17.50;;;7.10;;
809;SDS011;387;48.772;9.186;2024-01-15T07:52:52;20.13;;;6.27;;
809;SDS011;387;48.772;9.186;2024-01-15T07:55:18;17.55;;;7.40;;
809;SDS011;387;48.772;9.186;2024-01-15T07:57:43;14.27;;;6.20;;
809;SDS011;387;48.772;9.186;2024-01-15T08:00:09;13.47;;;5.60;;
809;SDS011;387;48.772;9.186;2024-01-15T08:02:36;14.40;;;7.03;;
809;SDS011;387;48.772;9.186;2024-01-15T08:05:01;11.03;;;6.57;;
809;SDS011;387;48.772;9.186;2024-01-15T08:07:27;15.90;;;6.77;;
809;SDS011;387;48.772;9.186;2024-01-15T08:09:53;18.07;;;7.73;;
809;SDS011;387;48.772;9.186;2024-01-15T08:12:18;15.77;;;5.67;;
809;SDS011;387;48.772;9.186;2024-01-15T08:14:44;12.20;;;5.43;;
809;SDS011;387;48.772;9.186;2024-01-15T08:17:10;15.13;;;6.03;;
809;SDS011;387;48.772;9.186;2024-01-15T08:19:36;17.43;;;5.40;;
809;SDS011;387;48.772;9.186;2024-01-15T08:22:01;12.17;;;4.50;;
809;SDS011;387;48.772;9.186;2024-01-15T08:24:27;12.03;;;4.67;;
809;SDS011;387;48.772;9.186;2024-01-15T08:26:53;19.70;;;6.55;;
809;SDS011;387;48.772;9.186;2024-01-15T08:29:19;10.80;;;4.70;;
809;SDS011;387;48.772;9.186;2024-01-15T08:31:46;15.75;;;5.63;;
809;SDS011;387;48.772;9.186;2024-01-15T08:34:11;12.47;;;4.60;;
809;SDS011;387;48.772;9.186;2024-01-15T08:36:37;19.07;;;5.67;;
809;SDS011;387;48.772;9.186;2024-01-15T08:39:03;11.70;;;5.37;;
809;SDS011;387;48.772;9.186;2024-01-15T08:41:30;10.93;;;3.50;;
809;SDS011;387;48.772;9.186;2024-01-15T08:43:57;14.52;;;5.60;;
809;SDS011;387;48.772;9.186;2024-01-15T08:46:22;8.50;;;3.27;;
809;SDS011;387;48.772;9.186;2024-01-15T08:48:49;12.73;;;5.75;;
809;SDS011;387;48.772;9.186;2024-01-15T08:51:14;15.77;;;7.30;;
809;SDS011;387;48.772;9.186;2024-01-15T08:53:40;13.57;;;5.73;;
809;SDS011;387;48.772;9.186;2024-01-15T08:56:06;18.87;;;7.50;;
809;SDS011;387;48.772;9.186;2024-01-15T08:58:31;18.67;;;6.30;;
809;SDS011;387;48.772;9.186;2024-01-15T09:00:59;13.05;;;5.72;;
809;SDS011;387;48.772;9.186;2024-01-15T09:03:24;13.73;;;6.00;;
809;SDS011;387;48.772;9.186;2024-01-15T09:05:50;11.83;;;5.87;;
809;SDS011;387;48.772;9.186;2024-01-15T09:08:16;13.40;;;6.27;;
809;SDS011;387;48.772;9.186;2024-01-15T09:10:42;14.50;;;6.30;;
809;SDS011;387;48.772;9.186;2024-01-15T09:13:07;17.63;;;5.37;;
809;SDS011;387;48.772;9.186;2024-01-15T09:15:33;13.60;;;5.60;;
809;SDS011;387;48.772;9.186;2024-01-15T09:17:59;19.63;;;6.80;;
809;SDS011;387;48.772;9.186;2024-01-15T09:20:27;14.18;;;4.93;;
809;SDS011;387;48.772;9.186;2024-01-15T09:22:53;9.13;;;4.77;;
809;SDS011;387;48.772;9.186;2024-01-15T09:25:18;9.50;;;5.20;;
809;SDS011;387;48.772;9.186;2024-01-15T09:27:44;13.55;;;4.70;;
809;SDS011;387;48.772;9.186;2024-01-15T09:30:10;10.70;;;5.10;;
809;SDS011;387;48.772;9.186;2024-01-15T09:32:36;15.60;;;5.40;;
809;SDS011;387;48.772;9.186;2024-01-15T09:35:02;11.23;;;5.73;;
809;SDS011;387;48.772;9.186;2024-01-15T09:37:27;11.67;;;4.90;;
809;SDS011;387;48.772;9.186;2024-01-15T09:39:53;10.03;;;4.80;;
809;SDS011;387;48.772;9.186;2024-01-15T09:42:20;12.65;;;5.97;;
809;SDS011;387;48.772;9.186;2024-01-15T09:44:48;10.60;;;4.70;;
809;SDS011;387;48.772;9.186;2024-01-15T09:47:13;12.40;;;4.70;;
809;SDS011;387;48.772;9.186;2024-01-15T09:49:41;12.40;;;4.65;;
809;SDS011;387;48.772;9.186;2024-01-15T09:52:07;11.82;;;5.90;;
809;SDS011;387;48.772;9.186;2024-01-15T09:54:33;10.73;;;4.80;;
809;SDS011;387;48.772;9.186;2024-01-15T09:57:00;12.27;;;4.55;;
809;SDS011;387;48.772;9.186;2024-01-15T09:59:25;10.00;;;5.03;;
809;SDS011;387;48.772;9.186;2024-01-15T10:01:53;7.07;;;3.15;;
809;SDS011;387;48.772;9.186;2024-01-15T10:04:20;9.25;;;5.68;;
809;SDS011;387;48.772;9.186;2024-01-15T10:06:46;11.90;;;5.17;;
809;SDS011;387;48.772;9.186;2024-01-15T10:09:13;8.60;;;4.95;;
809;SDS011;387;48.772;9.186;2024-01-15T10:11:42;14.40;;;4.88;;
809;SDS011;387;48.772;9.186;2024-01-15T10:14:09;11.88;;;5.15;;
809;SDS011;387;48.772;9.186;2024-01-15T10:16:38;11.25;;;4.55;;
809;SDS011;387;48.772;9.186;2024-01-15T10:19:07;13.30;;;5.05;;
809;SDS011;387;48.772;9.186;2024-01-15T10:21:33;9.40;;;4.72;;
809;SDS011;387;48.772;9.186;2024-01-15T10:24:00;13.05;;;4.60;;
809;SDS011;387;48.772;9.186;2024-01-15T10:26:27;14.25;;;4.68;;
809;SDS011;387;48.772;9.186;2024-01-15T10:28:53;10.57;;;4.90;;
809;SDS011;387;48.772;9.186;2024-01-15T10:31:19;9.53;;;4.97;;
809;SDS011;387;48.772;9.186;2024-01-15T10:33:46;18.13;;;5.88;;
809;SDS011;387;48.772;9.186;2024-01-15T10:36:15;8.68;;;4.72;;
809;SDS011;387;48.772;9.186;2024-01-15T10:38:45;8.18;;;3.67;;
809;SDS011;387;48.772;9.186;2024-01-15T10:41:11;7.25;;;2.80;;
809;SDS011;387;48.772;9.186;2024-01-15T10:43:37;7.60;;;3.47;;
809;SDS011;387;48.772;9.186;2024-01-15T10:46:03;7.93;;;3.40;;
809;SDS011;387;48.772;9.186;2024-01-15T10:48:29;8.45;;;3.08;;
809;SDS011;387;48.772;9.186;2024-01-15T10:50:58;16.00;;;5.13;;
809;SDS011;387;48.772;9.186;2024-01-15T10:53:24;10.40;;;4.25;;
809;SDS011;387;48.772;9.186;2024-01-15T10:55:50;9.67;;;4.20;;
809;SDS011;387;48.772;9.186;2024-01-15T10:58:19;8.95;;;4.30;;
809;SDS011;387;48.772;9.186;2024-01-15T11:00:47;6.20;;;3.72;;
809;SDS011;387;48.772;9.186;2024-01-15T11:03:13;10.68;;;3.47;;
809;SDS011;387;48.772;9.186;2024-01-15T11:05:39;8.43;;;4.20;;
809;SDS011;387;48.772;9.186;2024-01-15T11:08:08;7.40;;;4.07;;
809;SDS011;387;48.772;9.186;2024-01-15T11:10:46;9.50;;;4.38;;
809;SDS011;387;48.772;9.186;2024-01-15T11:16:02;13.00;;;4.95;;
809;SDS011;387;48.772;9.186;2024-01-15T11:29:29;11.50;;;5.15;;
809;SDS011;387;48.772;9.186;2024-01-15T11:32:03;5.60;;;2.90;;
809;SDS011;387;48.772;9.186;2024-01-15T11:37:17;5.85;;;4.10;;
809;SDS011;387;48.772;9.186;2024-01-15T11:39:44;8.35;;;3.30;;
809;SDS011;387;48.772;9.186;2024-01-15T11:42:11;11.15;;;5.20;;
809;SDS011;387;48.772;9.186;2024-01-15T11:44:38;10.05;;;4.88;;
809;SDS011;387;48.772;9.186;2024-01-15T11:47:08;13.93;;;5.90;;
809;SDS011;387;48.772;9.186;2024-01-15T11:52:09;8.93;;;3.83;;
809;SDS011;387;48.772;9.186;2024-01-15T11:54:37;15.27;;;6.10;;
809;SDS011;387;48.772;9.186;2024-01-15T11:57:08;9.63;;;4.38;;
809;SDS011;387;48.772;9.186;2024-01-15T11:59:40;12.80;;;4.95;;
809;SDS011;387;48.772;9.186;2024-01-15T12:02:06;12.15;;;5.05;;
809;SDS011;387;48.772;9.186;2024-01-15T12:04:32;5.22;;;3.30;;
809;SDS011;387;48.772;9.186;2024-01-15T12:06:58;13.40;;;5.50;;
809;SDS011;387;48.772;9.186;2024-01-15T12:09:23;9.93;;;4.20;;
809;SDS011;387;48.772;9.186;2024-01-15T12:11:51;9.97;;;5.80;;
809;SDS011;387;48.772;9.186;2024-01-15T12:14:25;12.07;;;5.70;;
809;SDS011;387;48.772;9.186;2024-01-15T12:16:52;16.40;;;5.32;;
809;SDS011;387;48.772;9.186;2024-01-15T12:19:18;11.13;;;3.83;;
809;SDS011;387;48.772;9.186;2024-01-15T12:21:44;7.13;;;3.63;;
809;SDS011;387;48.772;9.186;2024-01-15T12:24:10;16.73;;;7.37;;
809;SDS011;387;48.772;9.186;2024-01-15T12:26:35;15.43;;;6.77;;
809;SDS011;387;48.772;9.186;2024-01-15T12:29:06;10.40;;;4.00;;
809;SDS011;387;48.772;9.186;2024-01-15T12:31:32;13.23;;;4.93;;
809;SDS011;387;48.772;9.186;2024-01-15T12:33:59;6.05;;;3.80;;
809;SDS011;387;48.772;9.186;2024-01-15T12:36:26;14.82;;;5.80;;
809;SDS011;387;48.772;9.186;2024-01-15T12:38:52;15.47;;;5.17;;
809;SDS011;387;48.772;9.186;2024-01-15T12:41:17;15.10;;;7.03;;
809;SDS011;387;48.772;9.186;2024-01-15T12:43:44;16.63;;;6.10;;
809;SDS011;387;48.772;9.186;2024-01-15T12:46:10;11.43;;;5.17;;
809;SDS011;387;48.772;9.186;2024-01-15T12:48:35;15.80;;;7.30;;
809;SDS011;387;48.772;9.186;2024-01-15T12:51:01;26.85;;;8.07;;
809;SDS011;387;48.772;9.186;2024-01-15T12:53:31;17.48;;;7.15;;
809;SDS011;387;48.772;9.186;2024-01-15T12:55:56;16.63;;;5.53;;
809;SDS011;387;48.772;9.186;2024-01-15T12:58:22;23.10;;;10.00;;
809;SDS011;387;48.772;9.186;2024-01-15T13:00:47;21.40;;;7.90;;
809;SDS011;387;48.772;9.186;2024-01-15T13:03:13;18.53;;;8.13;;
809;SDS011;387;48.772;9.186;2024-01-15T13:05:39;18.73;;;6.60;;
809;SDS011;387;48.772;9.186;2024-01-15T13:08:06;12.70;;;6.68;;
809;SDS011;387;48.772;9.186;2024-01-15T13:10:32;13.48;;;5.75;;
809;SDS011;387;48.772;9.186;2024-01-15T13:12:58;16.53;;;6.27;;
809;SDS011;387;48.772;9.186;2024-01-15T13:15:23;17.03;;;6.53;;
809;SDS011;387;48.772;9.186;2024-01-15T13:17:49;15.33;;;6.40;;
809;SDS011;387;48.772;9.186;2024-01-15T13:20:15;12.23;;;5.97;;
809;SDS011;387;48.772;9.186;2024-01-15T13:22:40;8.47;;;3.73;;
809;SDS011;387;48.772;9.186;2024-01-15T13:25:08;11.32;;;4.13;;
809;SDS011;387;48.772;9.186;2024-01-15T13:27:36;18.98;;;4.88;;
809;SDS011;387;48.772;9.186;2024-01-15T13:30:02;10.33;;;4.20;;
809;SDS011;387;48.772;9.186;2024-01-15T13:32:29;11.35;;;4.63;;
809;SDS011;387;48.772;9.186;2024-01-15T13:34:55;15.87;;;6.27;;
809;SDS011;387;48.772;9.186;2024-01-15T13:37:22;4.13;;;2.65;;
809;SDS011;387;48.772;9.186;2024-01-15T13:39:50;13.20;;;6.35;;
809;SDS011;387;48.772;9.186;2024-01-15T13:42:20;12.93;;;5.28;;
809;SDS011;387;48.772;9.186;2024-01-15T13:44:52;12.65;;;5.95;;
809;SDS011;387;48.772;9.186;2024-01-15T13:47:17;14.60;;;4.97;;
809;SDS011;387;48.772;9.186;2024-01-15T13:49:43;9.93;;;4.57;;
809;SDS011;387;48.772;9.186;2024-01-15T13:52:09;14.37;;;5.53;;
809;SDS011;387;48.772;9.186;2024-01-15T13:54:34;11.60;;;5.30;;
809;SDS011;387;48.772;9.186;2024-01-15T13:57:00;11.17;;;5.57;;
809;SDS011;387;48.772;9.186;2024-01-15T13:59:26;22.75;;;6.22;;
809;SDS011;387;48.772;9.186;2024-01-15T14:01:53;10.25;;;5.55;;
809;SDS011;387;48.772;9.186;2024-01-15T14:04:19;12.40;;;5.50;;
809;SDS011;387;48.772;9.186;2024-01-15T14:06:44;7.23;;;4.37;;
809;SDS011;387;48.772;9.186;2024-01-15T14:09:10;12.33;;;5.23;;
809;SDS011;387;48.772;9.186;2024-01-15T14:11:36;13.73;;;4.60;;
809;SDS011;387;48.772;9.186;2024-01-15T14:14:03;13.07;;;5.10;;
809;SDS011;387;48.772;9.186;2024-01-15T14:16:28;10.25;;;4.35;;
809;SDS011;387;48.772;9.186;2024-01-15T14:18:54;8.33;;;4.47;;
809;SDS011;387;48.772;9.186;2024-01-15T14:21:20;14.47;;;6.00;;
809;SDS011;387;48.772;9.186;2024-01-15T14:23:45;13.77;;;5.70;;
809;SDS011;387;48.772;9.186;2024-01-15T14:26:11;15.20;;;6.13;;
809;SDS011;387;48.772;9.186;2024-01-15T14:28:40;10.53;;;5.40;;
809;SDS011;387;48.772;9.186;2024-01-15T14:31:05;12.05;;;5.25;;
809;SDS011;387;48.772;9.186;2024-01-15T14:33:31;9.30;;;4.13;;
809;SDS011;387;48.772;9.186;2024-01-15T14:35:57;8.80;;;4.60;;
809;SDS011;387;48.772;9.186;2024-01-15T14:38:23;4.73;;;3.40;;
809;SDS011;387;48.772;9.186;2024-01-15T14:40:51;13.48;;;5.32;;
809;SDS011;387;48.772;9.186;2024-01-15T14:43:17;7.57;;;4.27;;
809;SDS011;387;48.772;9.186;2024-01-15T14:45:42;7.70;;;4.03;;
809;SDS011;387;48.772;9.186;2024-01-15T14:48:08;8.23;;;4.80;;
809;SDS011;387;48.772;9.186;2024-01-15T14:50:34;8.67;;;5.37;;
809;SDS011;387;48.772;9.186;2024-01-15T14:53:00;12.23;;;6.27;;
809;SDS011;387;48.772;9.186;2024-01-15T14:55:25;10.00;;;6.10;;
809;SDS011;387;48.772;9.186;2024-01-15T14:57:51;13.40;;;6.20;;
809;SDS011;387;48.772;9.186;2024-01-15T15:00:17;12.93;;;6.50;;
809;SDS011;387;48.772;9.186;2024-01-15T15:02:43;13.73;;;5.47;;
809;SDS011;387;48.772;9.186;2024-01-15T15:05:10;17.13;;;7.70;;
809;SDS011;387;48.772;9.186;2024-01-15T15:07:38;13.32;;;6.97;;
809;SDS011;387;48.772;9.186;2024-01-15T15:10:04;11.03;;;5.80;;
809;SDS011;387;48.772;9.186;2024-01-15T15:12:30;11.93;;;6.53;;
809;SDS011;387;48.772;9.186;2024-01-15T15:14:56;13.13;;;6.72;;
809;SDS011;387;48.772;9.186;2024-01-15T15:17:23;13.98;;;7.25;;
809;SDS011;387;48.772;9.186;2024-01-15T15:19:48;13.23;;;7.60;;
809;SDS011;387;48.772;9.186;2024-01-15T15:22:14;18.73;;;5.30;;
809;SDS011;387;48.772;9.186;2024-01-15T15:24:41;11.55;;;7.60;;
809;SDS011;387;48.772;9.186;2024-01-15T15:27:06;10.27;;;6.80;;
809;SDS011;387;48.772;9.186;2024-01-15T15:29:32;12.07;;;7.10;;
809;SDS011;387;48.772;9.186;2024-01-15T15:32:00;16.27;;;7.30;;
809;SDS011;387;48.772;9.186;2024-01-15T15:34:26;16.17;;;7.67;;
809;SDS011;387;48.772;9.186;2024-01-15T15:36:51;17.83;;;7.77;;
809;SDS011;387;48.772;9.186;2024-01-15T15:39:17;14.87;;;6.80;;
809;SDS011;387;48.772;9.186;2024-01-15T15:41:43;13.57;;;6.07;;
809;SDS011;387;48.772;9.186;2024-01-15T15:44:09;15.50;;;6.20;;